createdAt,value
2018-12-12T00:04:57.441Z,90.33
2018-12-12T00:10:00.134Z,90.31
2018-12-12T00:15:02.712Z,90.22
2018-12-12T00:20:05.580Z,91.06
2018-12-12T00:25:08.171Z,90.49
2018-12-12T00:30:10.720Z,89.61
2018-12-12T00:35:13.450Z,89.78
2018-12-12T00:40:16.156Z,89.75
2018-12-12T00:45:18.724Z,89.74
2018-12-12T00:50:23.484Z,90.47
2018-12-12T00:55:26.126Z,90.79
2018-12-12T01:00:29.083Z,90.90
2018-12-12T01:05:31.703Z,90.25
2018-12-12T01:10:34.255Z,89.54
2018-12-12T01:15:36.930Z,90.31
2018-12-12T01:20:39.497Z,90.94
2018-12-12T01:25:42.065Z,90.79
2018-12-12T01:30:44.694Z,90.19
2018-12-12T01:35:47.450Z,90.54
2018-12-12T01:40:50.501Z,89.88
2018-12-12T01:45:53.087Z,89.55
2018-12-12T01:50:55.674Z,89.92
2018-12-12T01:55:58.212Z,89.31
2018-12-12T02:01:00.804Z,90.50
2018-12-12T02:06:03.509Z,90.05
2018-12-12T02:11:06.535Z,90.15
2018-12-12T02:16:09.734Z,89.42
2018-12-12T02:21:12.304Z,89.57
2018-12-12T02:26:14.946Z,91.06
2018-12-12T02:31:17.612Z,89.62
2018-12-12T02:36:20.327Z,90.45
2018-12-12T02:41:22.905Z,89.14
2018-12-12T02:46:26.220Z,90.28
2018-12-12T02:51:29.403Z,90.83
2018-12-12T02:56:32.009Z,90.54
2018-12-12T03:01:34.613Z,90.13
2018-12-12T03:06:37.419Z,90.48
2018-12-12T03:11:39.971Z,91.75
2018-12-12T03:16:42.618Z,90.32
2018-12-12T03:21:45.172Z,91.52
2018-12-12T03:26:47.741Z,91.56
2018-12-12T03:31:50.445Z,92.87
2018-12-12T03:36:53.031Z,92.46
2018-12-12T03:41:55.656Z,93.18
2018-12-12T03:46:58.250Z,93.01
2018-12-12T03:52:00.791Z,92.59
2018-12-12T03:57:03.364Z,92.66
2018-12-12T04:02:06.012Z,93.37
2018-12-12T04:07:08.551Z,92.90
2018-12-12T04:12:11.181Z,93.84
2018-12-12T04:17:13.868Z,92.50
2018-12-12T04:22:17.012Z,93.18
2018-12-12T04:27:19.600Z,92.91
2018-12-12T04:32:22.344Z,93.10
2018-12-12T04:37:25.052Z,92.31
2018-12-12T04:42:27.688Z,93.05
2018-12-12T04:47:30.227Z,92.52
2018-12-12T04:52:32.884Z,93.24
2018-12-12T04:57:35.451Z,93.26
2018-12-12T05:02:38.252Z,92.29
2018-12-12T05:07:40.847Z,92.75
2018-12-12T05:12:43.517Z,92.94
2018-12-12T05:17:48.936Z,92.62
2018-12-12T05:22:51.520Z,92.17
2018-12-12T05:27:54.056Z,93.32
2018-12-12T05:32:57.153Z,93.15
2018-12-12T05:37:59.826Z,94.54
2018-12-12T05:43:02.500Z,92.42
2018-12-12T05:48:05.069Z,93.70
2018-12-12T05:53:07.714Z,93.15
2018-12-12T05:58:10.274Z,92.67
2018-12-12T06:03:12.919Z,92.61
2018-12-12T06:08:16.157Z,92.69
2018-12-12T06:13:18.973Z,92.46
2018-12-12T06:18:21.665Z,93.57
2018-12-12T06:23:24.209Z,93.90
2018-12-12T06:28:28.904Z,93.44
2018-12-12T06:33:31.831Z,93.25
2018-12-12T06:38:34.596Z,92.35
2018-12-12T06:43:37.240Z,93.24
2018-12-12T06:48:39.819Z,94.25
2018-12-12T06:53:43.383Z,92.68
2018-12-12T06:58:46.674Z,93.19
2018-12-12T07:03:49.275Z,93.69
2018-12-12T07:08:52.061Z,92.76
2018-12-12T07:13:54.843Z,93.56
2018-12-12T07:18:58.053Z,91.54
2018-12-12T07:24:00.633Z,92.88
2018-12-12T07:29:03.295Z,92.30
2018-12-12T07:34:05.916Z,92.34
2018-12-12T07:39:08.767Z,92.20
2018-12-12T07:44:11.343Z,92.76
2018-12-12T07:49:14.261Z,92.22
2018-12-12T07:54:17.071Z,91.79
2018-12-12T07:59:19.612Z,93.56
2018-12-12T08:04:22.152Z,92.21
2018-12-12T08:09:24.784Z,92.48
2018-12-12T08:14:27.913Z,92.25
2018-12-12T08:19:30.590Z,92.23
2018-12-12T08:24:33.895Z,91.61
2018-12-12T08:29:37.090Z,91.49
2018-12-12T08:34:40.265Z,90.50
2018-12-12T08:39:42.854Z,90.41
2018-12-12T08:44:45.406Z,89.89
2018-12-12T08:49:48.250Z,89.23
2018-12-12T08:54:50.841Z,90.82
2018-12-12T08:59:53.553Z,90.86
2018-12-12T09:04:56.131Z,90.51
2018-12-12T09:09:58.792Z,89.88
2018-12-12T09:15:01.412Z,90.17
2018-12-12T09:20:04.954Z,89.65
2018-12-12T09:25:07.641Z,89.53
2018-12-12T09:30:10.277Z,89.35
2018-12-12T09:35:13.003Z,89.78
2018-12-12T09:40:16.526Z,89.52
2018-12-12T09:45:21.866Z,88.86
2018-12-12T09:50:25.148Z,89.50
2018-12-12T09:55:27.756Z,89.63
2018-12-12T10:00:30.321Z,89.16
2018-12-12T10:05:32.920Z,87.74
2018-12-12T10:10:35.592Z,88.84
2018-12-12T10:15:38.151Z,88.40
2018-12-12T10:20:40.785Z,88.82
2018-12-12T10:25:44.170Z,88.70
2018-12-12T10:30:46.745Z,89.66
2018-12-12T10:35:49.396Z,88.76
2018-12-12T10:40:52.539Z,86.22
2018-12-12T10:45:55.078Z,87.04
2018-12-12T10:50:57.646Z,84.87
2018-12-12T10:56:00.398Z,86.14
2018-12-12T11:01:08.696Z,85.44
2018-12-12T11:06:11.308Z,85.56
2018-12-12T11:11:13.922Z,85.36
2018-12-12T11:16:16.821Z,84.88
2018-12-12T11:21:20.087Z,84.04
2018-12-12T11:26:22.938Z,84.27
2018-12-12T11:31:25.941Z,82.74
2018-12-12T11:36:28.749Z,85.10
2018-12-12T11:41:32.102Z,83.18
2018-12-12T11:46:35.854Z,84.26
2018-12-12T11:51:38.778Z,83.95
2018-12-12T11:56:41.894Z,84.20
2018-12-12T12:01:45.021Z,83.14
2018-12-12T12:06:47.670Z,83.23
2018-12-12T12:11:50.237Z,82.83
2018-12-12T12:16:52.879Z,83.31
2018-12-12T12:21:55.576Z,81.07
2018-12-12T12:26:58.372Z,80.58
2018-12-12T12:32:01.066Z,79.83
2018-12-12T12:37:03.704Z,80.62
2018-12-12T12:42:06.427Z,80.28
2018-12-12T12:47:10.140Z,81.16
2018-12-12T12:52:12.860Z,81.20
2018-12-12T12:57:15.526Z,79.33
2018-12-12T13:02:18.653Z,80.36
2018-12-12T13:07:21.222Z,79.91
2018-12-12T13:12:23.808Z,81.25
2018-12-12T13:17:26.638Z,82.01
2018-12-12T13:22:29.333Z,81.92
2018-12-12T13:27:31.900Z,81.65
2018-12-12T13:32:34.481Z,81.46
2018-12-12T13:37:37.244Z,80.85
2018-12-12T13:42:39.884Z,81.03
2018-12-12T13:47:43.133Z,79.78
2018-12-12T13:52:45.782Z,80.43
2018-12-12T13:57:48.378Z,80.43
2018-12-12T14:02:50.992Z,81.70
2018-12-12T14:07:53.545Z,81.36
2018-12-12T14:12:56.365Z,82.44
2018-12-12T14:17:58.929Z,82.08
2018-12-12T14:23:02.382Z,81.39
2018-12-12T14:28:05.009Z,81.66
2018-12-12T14:33:08.274Z,82.28
2018-12-12T14:38:11.089Z,82.79
2018-12-12T14:43:14.449Z,83.22
2018-12-12T14:48:17.646Z,82.24
2018-12-12T14:53:20.290Z,82.99
2018-12-12T14:58:22.987Z,83.21
2018-12-12T15:03:25.612Z,83.78
2018-12-12T15:08:28.211Z,84.42
2018-12-12T15:13:31.588Z,83.62
2018-12-12T15:18:34.174Z,84.47
2018-12-12T15:23:36.998Z,84.34
2018-12-12T15:28:39.665Z,85.23
2018-12-12T15:33:43.009Z,85.05
2018-12-12T15:38:45.912Z,86.42
2018-12-12T15:43:48.780Z,85.82
2018-12-12T15:48:51.884Z,87.01
2018-12-12T15:53:54.612Z,86.72
2018-12-12T15:58:57.988Z,86.32
2018-12-12T16:04:00.636Z,87.47
2018-12-12T16:09:04.325Z,88.06
2018-12-12T16:14:06.864Z,87.20
2018-12-12T16:19:09.536Z,87.53
2018-12-12T16:24:12.132Z,87.57
2018-12-12T16:29:14.939Z,87.37
2018-12-12T16:34:17.676Z,87.63
2018-12-12T16:39:20.433Z,86.69
2018-12-12T16:44:23.109Z,87.79
2018-12-12T16:49:25.824Z,85.76
2018-12-12T16:54:28.536Z,86.73
2018-12-12T16:59:31.337Z,86.04
2018-12-12T17:04:33.930Z,86.67
2018-12-12T17:09:36.560Z,88.39
2018-12-12T17:14:39.938Z,87.28
2018-12-12T17:19:43.218Z,87.04
2018-12-12T17:24:46.555Z,87.19
2018-12-12T17:29:49.169Z,86.78
2018-12-12T17:34:51.882Z,87.69
2018-12-12T17:39:54.479Z,87.29
2018-12-12T17:44:57.043Z,88.00
2018-12-12T17:50:00.402Z,87.77
2018-12-12T17:55:03.066Z,90.33
2018-12-12T18:00:06.358Z,89.41
2018-12-12T18:05:15.094Z,88.33
2018-12-12T18:10:14.629Z,89.18
2018-12-12T18:15:17.210Z,87.58
2018-12-12T18:20:19.937Z,89.76
2018-12-12T18:25:22.602Z,90.04
2018-12-12T18:30:25.863Z,90.20
2018-12-12T18:35:28.469Z,90.21
2018-12-12T18:40:31.115Z,90.36
2018-12-12T18:45:33.777Z,89.88
2018-12-12T18:50:36.475Z,90.25
2018-12-12T18:55:39.310Z,89.68
2018-12-12T19:00:41.879Z,89.85
2018-12-12T19:05:44.450Z,88.75
2018-12-12T19:10:47.030Z,89.99
2018-12-12T19:15:49.592Z,87.40
2018-12-12T19:20:52.196Z,89.50
2018-12-12T19:25:54.924Z,88.50
2018-12-12T19:30:57.805Z,87.83
2018-12-12T19:36:00.500Z,90.01
2018-12-12T19:41:03.071Z,88.48
2018-12-12T19:46:06.452Z,88.49
2018-12-12T19:51:09.062Z,87.00
2018-12-12T19:56:11.693Z,88.31
2018-12-12T20:01:14.487Z,89.17
2018-12-12T20:06:17.443Z,88.23
2018-12-12T20:11:19.995Z,89.94
2018-12-12T20:16:23.204Z,90.36
2018-12-12T20:21:25.816Z,88.85
2018-12-12T20:26:29.023Z,89.57
2018-12-12T20:31:31.632Z,87.63
2018-12-12T20:36:34.261Z,88.09
2018-12-12T20:41:36.842Z,88.79
2018-12-12T20:46:39.710Z,88.19
2018-12-12T20:51:42.757Z,88.29
2018-12-12T20:56:45.296Z,88.59
2018-12-12T21:01:48.086Z,86.20
2018-12-12T21:06:50.822Z,87.29
2018-12-12T21:11:53.526Z,85.61
2018-12-12T21:16:56.104Z,83.82
2018-12-12T21:21:59.491Z,82.82
2018-12-12T21:27:02.322Z,81.87
2018-12-12T21:32:05.708Z,81.25
2018-12-12T21:37:08.698Z,82.40
2018-12-12T21:42:11.729Z,82.49
2018-12-12T21:47:14.354Z,80.95
2018-12-12T21:52:16.954Z,81.57
2018-12-12T21:57:19.511Z,81.07
2018-12-12T22:02:22.633Z,82.86
2018-12-12T22:07:25.288Z,81.83
2018-12-12T22:12:28.015Z,83.30
2018-12-12T22:17:30.768Z,82.19
2018-12-12T22:22:33.445Z,82.06
2018-12-12T22:27:36.104Z,82.69
2018-12-12T22:32:38.907Z,82.81
2018-12-12T22:37:41.582Z,84.50
2018-12-12T22:42:44.393Z,82.52
2018-12-12T22:47:47.013Z,82.98
2018-12-12T22:52:49.687Z,81.63
2018-12-12T22:57:52.414Z,82.51
2018-12-12T23:02:55.031Z,81.98
2018-12-12T23:07:57.777Z,80.95
2018-12-12T23:13:00.375Z,83.11
2018-12-12T23:18:03.191Z,81.27
2018-12-12T23:23:05.825Z,82.60
2018-12-12T23:28:08.644Z,82.75
2018-12-12T23:33:11.325Z,82.80
2018-12-12T23:38:14.148Z,82.09
2018-12-12T23:43:16.867Z,82.08
2018-12-12T23:48:19.441Z,81.54
2018-12-12T23:53:22.156Z,82.72
2018-12-12T23:58:24.779Z,82.39
